Price, Texas
Current Conditions -  °F | °C
As of 10:35 AM on Sunday 21 Dec 2014 (Local Time) from KRFI Reporting Station
Overcast Overcast  
Wind Chill: 41°   Ceiling: 2000
Heat Index: 45°   Visibility: 10mi
Dew Point: 43°   Wind: 7mph
Humidity: 95%   Direction: 150°SSE
Pressure: 30.15"   Gusts: NA
Location:  32.13°N, 94.94°W
Report Text: KRFI 211635Z AUTO 15006KT 10SM SCT006 OVC020 07/06 A3015 RMK AO2 T00700062
Loading
Personal Weather Stations






























Interactive Weather Map New forecast layout! Learn more

10-Day Weather Forecast

Advertisements
Track Severe Weather on mobile